Time;durP1;ratioP1;P1;durP2;ratioP2;P2;SDS_P1;SDS_P2;PMS_P1;PMS_P2;Temp;Humidity;BMP_temperature;BMP_pressure;BME280_temperature;BME280_humidity;BME280_pressure;Samples;Min_cycle;Max_cycle;Signal;HPM_P1;HPM_P2
2022/10/21 00:00:53;;;;;;;7.32;5.55;;;11.30;99.30;;;;;;5071246;28;20058;-72
2022/10/21 00:03:19;;;;;;;9.52;5.88;;;11.30;99.30;;;;;;5069668;28;20036;-71
2022/10/21 00:05:45;;;;;;;11.02;6.25;;;11.30;99.30;;;;;;5073424;28;20086;-72
2022/10/21 00:08:11;;;;;;;9.60;6.22;;;11.30;99.40;;;;;;5078422;28;20543;-72
2022/10/21 00:10:37;;;;;;;8.30;6.00;;;11.30;99.40;;;;;;5073666;28;20024;-73
2022/10/21 00:13:02;;;;;;;10.23;6.10;;;11.20;99.50;;;;;;5078411;28;20345;-72
2022/10/21 00:15:28;;;;;;;10.30;5.85;;;11.20;99.50;;;;;;5077478;28;20484;-72
2022/10/21 00:17:53;;;;;;;11.52;6.50;;;11.20;99.50;;;;;;5074435;28;20024;-72
2022/10/21 00:20:20;;;;;;;9.25;6.18;;;11.20;99.60;;;;;;5076234;28;20037;-72
2022/10/21 00:22:45;;;;;;;9.73;6.35;;;11.20;99.60;;;;;;5077034;28;20487;-71
2022/10/21 00:25:12;;;;;;;9.88;6.15;;;11.20;99.70;;;;;;5076386;28;20078;-72
2022/10/21 00:27:38;;;;;;;9.98;5.95;;;11.20;99.70;;;;;;5075548;28;20031;-72
2022/10/21 00:30:06;;;;;;;8.70;5.70;;;11.20;99.70;;;;;;5078148;28;20028;-72
2022/10/21 00:32:31;;;;;;;7.82;5.82;;;11.10;99.80;;;;;;5077706;28;20040;-71
2022/10/21 00:34:57;;;;;;;8.10;5.22;;;11.20;99.90;;;;;;5078147;28;20116;-72
2022/10/21 00:37:23;;;;;;;9.38;6.28;;;11.20;99.90;;;;;;5083908;28;20074;-72
2022/10/21 00:39:50;;;;;;;9.00;5.85;;;11.20;99.90;;;;;;5080950;28;20035;-71
2022/10/21 00:42:19;;;;;;;10.32;5.78;;;11.20;99.90;;;;;;5068642;28;20048;-72
2022/10/21 00:45:04;;;;;;;8.85;5.80;;;11.20;99.90;;;;;;5074673;28;20054;-72
2022/10/21 00:47:32;;;;;;;9.48;6.20;;;11.20;99.90;;;;;;5079709;28;20020;-72
2022/10/21 00:50:02;;;;;;;10.45;6.70;;;11.20;99.90;;;;;;5076699;28;20102;-72
2022/10/21 00:52:31;;;;;;;8.73;5.68;;;11.20;99.90;;;;;;5080926;28;20531;-72
2022/10/21 00:55:01;;;;;;;9.77;6.07;;;11.20;99.90;;;;;;5084679;28;20479;-72
2022/10/21 00:57:27;;;;;;;9.55;5.75;;;11.20;99.90;;;;;;5083218;28;20031;-72
2022/10/21 00:59:58;;;;;;;8.73;5.85;;;11.30;99.90;;;;;;5080997;28;20063;-74
2022/10/21 01:02:24;;;;;;;9.93;6.57;;;11.30;99.90;;;;;;5067183;28;20148;-74
2022/10/21 01:04:52;;;;;;;8.55;6.40;;;11.30;99.90;;;;;;5061054;28;20055;-74
2022/10/21 01:07:18;;;;;;;8.65;6.10;;;11.30;99.90;;;;;;5077519;28;20031;-73
2022/10/21 01:09:44;;;;;;;8.60;5.80;;;11.30;99.90;;;;;;5077373;28;20472;-73
2022/10/21 01:12:26;;;;;;;11.05;6.68;;;11.30;99.90;;;;;;5074547;28;20066;-73
2022/10/21 01:15:29;;;;;;;9.23;6.25;;;11.30;99.90;;;;;;5077119;28;20036;-72
2022/10/21 01:18:15;;;;;;;9.88;6.32;;;11.30;99.90;;;;;;5072081;28;20056;-72
2022/10/21 01:20:52;;;;;;;10.15;5.93;;;11.30;99.90;;;;;;5074506;28;20119;-73
2022/10/21 01:23:57;;;;;;;7.35;5.60;;;11.30;99.90;;;;;;5073174;28;20040;-72
2022/10/21 01:26:41;;;;;;;9.02;5.88;;;11.30;99.90;;;;;;5072390;28;20039;-72
2022/10/21 01:29:34;;;;;;;9.95;5.43;;;11.30;99.90;;;;;;5073400;28;20107;-73
2022/10/21 01:32:36;;;;;;;10.80;6.15;;;11.30;99.90;;;;;;5065893;28;20045;-72
2022/10/21 01:35:13;;;;;;;9.98;5.95;;;11.30;99.90;;;;;;5072984;28;20038;-70
2022/10/21 01:38:08;;;;;;;8.43;6.13;;;11.30;99.90;;;;;;5073439;28;20033;-71
2022/10/21 01:40:42;;;;;;;9.18;6.18;;;11.30;99.90;;;;;;5071228;28;20036;-71
2022/10/21 01:43:31;;;;;;;10.75;6.55;;;11.30;99.90;;;;;;5073095;28;20036;-71
2022/10/21 01:46:03;;;;;;;7.75;5.60;;;11.30;99.90;;;;;;5072287;28;20032;-71
2022/10/21 01:48:33;;;;;;;8.85;5.97;;;11.30;99.90;;;;;;5073171;28;20111;-71
2022/10/21 01:51:03;;;;;;;9.10;6.03;;;11.30;99.90;;;;;;5071011;28;20036;-71
2022/10/21 01:53:47;;;;;;;8.20;6.28;;;11.30;99.90;;;;;;5071629;28;20033;-72
2022/10/21 01:56:15;;;;;;;10.25;6.70;;;11.30;99.90;;;;;;5072420;28;20028;-72
2022/10/21 01:58:43;;;;;;;10.90;6.45;;;11.30;99.90;;;;;;5073005;28;20036;-72
2022/10/21 02:01:11;;;;;;;10.35;6.40;;;11.30;99.90;;;;;;5067987;28;20036;-72
2022/10/21 02:03:40;;;;;;;8.15;6.20;;;11.30;99.90;;;;;;5059123;28;20025;-72
2022/10/21 02:06:07;;;;;;;9.57;6.65;;;11.30;99.90;;;;;;5072006;28;20028;-72
2022/10/21 02:08:33;;;;;;;9.13;6.30;;;11.30;99.90;;;;;;5072587;28;20421;-72
2022/10/21 02:11:07;;;;;;;10.57;5.90;;;11.30;99.90;;;;;;5071963;28;20107;-72
2022/10/21 02:13:54;;;;;;;11.98;6.53;;;11.30;99.90;;;;;;5070979;28;20093;-72
2022/10/21 02:16:23;;;;;;;11.45;6.55;;;11.30;99.90;;;;;;5052343;28;20119;-72
2022/10/21 02:18:50;;;;;;;9.82;6.55;;;11.40;99.90;;;;;;5084460;28;20071;-72
2022/10/21 02:21:19;;;;;;;8.80;6.22;;;11.40;99.90;;;;;;5071724;28;20064;-73
2022/10/21 02:23:52;;;;;;;9.02;6.75;;;11.40;99.90;;;;;;5070258;28;20170;-73
2022/10/21 02:26:25;;;;;;;9.88;7.15;;;11.40;99.90;;;;;;5071947;28;20025;-73
2022/10/21 02:28:52;;;;;;;8.07;6.28;;;11.40;99.90;;;;;;5070940;28;20079;-74
2022/10/21 02:31:28;;;;;;;9.75;6.40;;;11.40;99.90;;;;;;5072157;28;20027;-73
2022/10/21 02:34:29;;;;;;;7.57;6.03;;;11.40;99.90;;;;;;5086607;28;20041;-73
2022/10/21 02:37:02;;;;;;;8.25;5.88;;;11.40;99.90;;;;;;5065819;28;20036;-73
2022/10/21 02:39:35;;;;;;;9.93;6.18;;;11.40;99.90;;;;;;5072203;28;20025;-74
2022/10/21 02:42:05;;;;;;;16.75;7.13;;;11.40;99.90;;;;;;5071725;28;20054;-74
2022/10/21 02:44:32;;;;;;;11.07;6.30;;;11.40;99.90;;;;;;5072024;28;20358;-74
2022/10/21 02:46:57;;;;;;;10.95;6.05;;;11.50;99.90;;;;;;5070759;28;20043;-73
2022/10/21 02:49:23;;;;;;;9.10;6.82;;;11.50;99.90;;;;;;5072046;28;20020;-74
2022/10/21 02:51:49;;;;;;;9.75;5.82;;;11.50;99.90;;;;;;5071129;28;20426;-73
2022/10/21 02:54:14;;;;;;;12.05;6.35;;;11.50;99.90;;;;;;5071541;28;20013;-73
2022/10/21 02:56:40;;;;;;;8.80;6.43;;;11.50;99.90;;;;;;5071432;28;20036;-73
2022/10/21 02:59:05;;;;;;;9.65;6.60;;;11.50;99.90;;;;;;5071735;28;20024;-73
2022/10/21 03:01:31;;;;;;;12.90;7.13;;;11.50;99.90;;;;;;5070889;28;20068;-73
2022/10/21 03:03:56;;;;;;;8.93;6.68;;;11.50;99.90;;;;;;5071470;28;20031;-73
2022/10/21 03:06:23;;;;;;;11.15;7.35;;;11.50;99.90;;;;;;5069144;28;20025;-72
2022/10/21 03:08:49;;;;;;;8.95;6.43;;;11.50;99.90;;;;;;5062321;28;20038;-71
2022/10/21 03:11:14;;;;;;;8.57;6.97;;;11.50;99.90;;;;;;5070529;28;20032;-72
2022/10/21 03:13:40;;;;;;;11.10;6.22;;;11.50;99.90;;;;;;5071579;28;20031;-71
2022/10/21 03:16:06;;;;;;;12.40;7.38;;;11.50;99.90;;;;;;5070190;28;20036;-73
2022/10/21 03:18:32;;;;;;;9.75;7.00;;;11.50;99.90;;;;;;5071249;28;20035;-72
2022/10/21 03:20:57;;;;;;;10.45;6.32;;;11.50;99.90;;;;;;5070767;28;20497;-72
2022/10/21 03:23:23;;;;;;;8.55;6.55;;;11.50;99.90;;;;;;5071237;28;20107;-72
2022/10/21 03:25:49;;;;;;;9.00;6.38;;;11.60;99.90;;;;;;5070317;28;20017;-72
2022/10/21 03:28:14;;;;;;;10.27;7.00;;;11.50;99.90;;;;;;5070256;28;20029;-72
2022/10/21 03:30:40;;;;;;;11.15;7.43;;;11.60;99.90;;;;;;5070986;28;20025;-72
2022/10/21 03:33:06;;;;;;;11.43;7.35;;;11.60;99.90;;;;;;5067421;28;20055;-73
2022/10/21 03:35:32;;;;;;;8.73;6.95;;;11.60;99.90;;;;;;5071576;28;20113;-72
2022/10/21 03:37:57;;;;;;;9.63;6.88;;;11.60;99.90;;;;;;5070876;28;20372;-73
2022/10/21 03:40:28;;;;;;;9.93;6.85;;;11.60;99.90;;;;;;5071626;28;20399;-72
2022/10/21 03:42:55;;;;;;;10.07;6.78;;;11.60;99.90;;;;;;5070892;28;20517;-71
2022/10/21 03:45:20;;;;;;;9.88;7.47;;;11.60;99.90;;;;;;5071045;28;20032;-71
2022/10/21 03:47:46;;;;;;;10.73;7.15;;;11.60;99.90;;;;;;5070485;28;20498;-71
2022/10/21 03:50:12;;;;;;;9.63;6.68;;;11.60;99.90;;;;;;5071012;28;20032;-72
2022/10/21 03:52:37;;;;;;;10.55;7.60;;;11.60;99.90;;;;;;5070247;28;20114;-73
2022/10/21 03:55:03;;;;;;;10.55;6.80;;;11.60;99.90;;;;;;5071522;28;20067;-71
2022/10/21 03:57:29;;;;;;;9.30;7.15;;;11.70;99.90;;;;;;5069994;28;20028;-71
2022/10/21 03:59:54;;;;;;;9.65;7.07;;;11.70;99.90;;;;;;5071083;28;20482;-72
2022/10/21 04:02:20;;;;;;;9.75;7.22;;;11.70;99.90;;;;;;5070572;28;20461;-72
2022/10/21 04:04:46;;;;;;;9.25;7.43;;;11.70;99.90;;;;;;5073033;28;20028;-71
2022/10/21 04:07:11;;;;;;;11.40;7.55;;;11.70;99.90;;;;;;5074201;28;20028;-71
2022/10/21 04:09:37;;;;;;;9.90;6.95;;;11.70;99.90;;;;;;5074199;28;20027;-71
2022/10/21 04:12:03;;;;;;;11.43;8.00;;;11.70;99.90;;;;;;5074469;28;20024;-71
2022/10/21 04:14:29;;;;;;;11.65;7.72;;;11.70;99.90;;;;;;5073200;28;20028;-71
2022/10/21 04:16:54;;;;;;;11.88;7.07;;;11.70;99.90;;;;;;5074011;28;20021;-71
2022/10/21 04:19:20;;;;;;;10.98;7.88;;;11.70;99.90;;;;;;5074469;28;20119;-72
2022/10/21 04:21:47;;;;;;;11.32;8.07;;;11.70;99.90;;;;;;5074401;28;20028;-72
2022/10/21 04:24:12;;;;;;;10.38;7.95;;;11.70;99.90;;;;;;5074515;28;20510;-72
2022/10/21 04:26:40;;;;;;;10.23;7.57;;;11.70;99.90;;;;;;5073792;28;20056;-72
2022/10/21 04:29:06;;;;;;;11.10;8.48;;;11.70;99.90;;;;;;5074070;28;20039;-71
2022/10/21 04:31:33;;;;;;;10.23;7.85;;;11.80;99.90;;;;;;5072947;28;20033;-71
2022/10/21 04:33:58;;;;;;;12.15;8.00;;;11.70;99.90;;;;;;5074293;28;20048;-72
2022/10/21 04:36:24;;;;;;;11.43;8.63;;;11.80;99.90;;;;;;5073291;28;20510;-71
2022/10/21 04:38:50;;;;;;;10.43;7.47;;;11.70;99.90;;;;;;5074331;28;20013;-71
2022/10/21 04:41:15;;;;;;;9.85;7.90;;;11.70;99.90;;;;;;5073930;28;20109;-71
2022/10/21 04:43:41;;;;;;;10.63;7.57;;;11.70;99.90;;;;;;5073905;28;20028;-71
2022/10/21 04:46:13;;;;;;;12.88;8.20;;;11.60;99.90;;;;;;5073930;28;20033;-71
2022/10/21 04:48:38;;;;;;;10.95;8.20;;;11.70;99.90;;;;;;5072905;28;20028;-71
2022/10/21 04:51:04;;;;;;;10.45;7.60;;;11.70;99.90;;;;;;5074441;28;20115;-72
2022/10/21 04:53:30;;;;;;;12.65;9.05;;;11.60;99.90;;;;;;5073127;28;20032;-72
2022/10/21 04:55:57;;;;;;;10.38;9.10;;;11.70;99.90;;;;;;5073977;28;20028;-72
2022/10/21 04:58:23;;;;;;;11.38;8.27;;;11.60;99.90;;;;;;5073557;28;20036;-71
2022/10/21 05:00:49;;;;;;;10.65;7.68;;;11.60;99.90;;;;;;5084545;28;20419;-72
2022/10/21 05:03:17;;;;;;;12.90;8.52;;;11.60;99.90;;;;;;5079569;28;20040;-73
2022/10/21 05:05:43;;;;;;;12.05;7.97;;;11.60;99.90;;;;;;5074716;28;20020;-73
2022/10/21 05:08:08;;;;;;;10.73;7.70;;;11.60;99.90;;;;;;5074130;28;20506;-73
2022/10/21 05:10:34;;;;;;;11.30;8.00;;;11.60;99.90;;;;;;5073279;28;20116;-73
2022/10/21 05:13:01;;;;;;;12.90;7.90;;;11.60;99.90;;;;;;5073132;28;20128;-73
2022/10/21 05:15:27;;;;;;;10.63;8.30;;;11.70;99.90;;;;;;5066916;28;20090;-73
2022/10/21 05:17:53;;;;;;;11.68;8.30;;;11.70;99.90;;;;;;5073651;28;20717;-73
2022/10/21 05:20:19;;;;;;;9.93;7.57;;;11.70;99.90;;;;;;5073328;28;20107;-73
2022/10/21 05:22:45;;;;;;;10.48;7.72;;;11.70;99.90;;;;;;5073133;28;20487;-74
2022/10/21 05:25:10;;;;;;;11.20;7.43;;;11.70;99.90;;;;;;5071674;28;20093;-73
2022/10/21 05:27:36;;;;;;;11.05;8.60;;;11.70;99.90;;;;;;5073301;28;20361;-72
2022/10/21 05:30:03;;;;;;;11.10;8.25;;;11.70;99.90;;;;;;5072607;28;20052;-72
2022/10/21 05:32:29;;;;;;;9.63;7.45;;;11.70;99.90;;;;;;5073026;28;20032;-73
2022/10/21 05:34:54;;;;;;;11.25;8.27;;;11.70;99.90;;;;;;5073076;28;20384;-72
2022/10/21 05:37:20;;;;;;;12.05;8.70;;;11.70;99.90;;;;;;5072737;28;20043;-73
2022/10/21 05:39:46;;;;;;;11.07;8.30;;;11.70;99.90;;;;;;5072549;28;20024;-73
2022/10/21 05:42:12;;;;;;;10.10;8.00;;;11.80;99.90;;;;;;5072376;28;20036;-72
2022/10/21 05:44:38;;;;;;;9.90;7.80;;;11.80;99.90;;;;;;5073296;28;20051;-72
2022/10/21 05:47:03;;;;;;;11.18;8.60;;;11.80;99.90;;;;;;5071047;28;20134;-72
2022/10/21 05:49:29;;;;;;;11.77;8.13;;;11.80;99.90;;;;;;5072552;28;20032;-72
2022/10/21 05:51:55;;;;;;;12.05;9.02;;;11.80;99.90;;;;;;5072259;28;20518;-72
2022/10/21 05:54:20;;;;;;;12.63;8.60;;;11.80;99.90;;;;;;5073264;28;20026;-72
2022/10/21 05:56:47;;;;;;;10.65;8.02;;;11.80;99.90;;;;;;5072080;28;20468;-72
2022/10/21 05:59:13;;;;;;;14.65;9.07;;;11.80;99.90;;;;;;5072946;28;20046;-72
2022/10/21 06:01:38;;;;;;;11.93;8.02;;;11.80;99.90;;;;;;5072056;28;20037;-73
2022/10/21 06:04:05;;;;;;;12.88;8.73;;;11.80;99.90;;;;;;5072495;28;20494;-71
2022/10/21 06:06:30;;;;;;;11.93;8.38;;;11.80;99.90;;;;;;5071970;28;20353;-72
2022/10/21 06:08:56;;;;;;;12.68;8.70;;;11.80;99.90;;;;;;5071143;28;20089;-72
2022/10/21 06:11:23;;;;;;;14.43;8.88;;;11.90;99.90;;;;;;5071831;28;20032;-72
2022/10/21 06:13:49;;;;;;;13.10;8.93;;;11.90;99.90;;;;;;5072673;28;20024;-73
2022/10/21 06:16:17;;;;;;;11.18;7.63;;;11.90;99.90;;;;;;5071455;28;20539;-72
2022/10/21 06:18:43;;;;;;;14.23;8.85;;;11.90;99.90;;;;;;5072570;28;20032;-73
2022/10/21 06:21:09;;;;;;;12.45;8.68;;;11.90;99.90;;;;;;5071469;28;20037;-72
2022/10/21 06:23:35;;;;;;;17.73;10.30;;;11.90;99.90;;;;;;5071724;28;20529;-72
2022/10/21 06:26:09;;;;;;;12.52;9.20;;;12.00;99.90;;;;;;5071110;28;20468;-72
2022/10/21 06:28:36;;;;;;;11.32;8.40;;;12.00;99.90;;;;;;5071397;28;20036;-72
2022/10/21 06:31:02;;;;;;;13.93;8.93;;;12.00;99.90;;;;;;5071850;28;20024;-71
2022/10/21 06:33:28;;;;;;;12.15;8.40;;;12.00;99.90;;;;;;5071983;28;20052;-69
2022/10/21 06:35:54;;;;;;;12.52;8.77;;;12.00;99.90;;;;;;5071524;28;20380;-69
2022/10/21 06:38:20;;;;;;;11.25;8.23;;;12.00;99.90;;;;;;5064214;28;20025;-70
2022/10/21 06:40:47;;;;;;;11.80;8.88;;;12.00;99.90;;;;;;5069855;28;20031;-73
2022/10/21 06:43:14;;;;;;;12.10;8.43;;;12.10;99.90;;;;;;5071725;28;20082;-68
2022/10/21 06:45:40;;;;;;;15.30;8.32;;;12.10;99.90;;;;;;5069205;28;20048;-69
2022/10/21 06:48:06;;;;;;;12.00;8.50;;;12.10;99.90;;;;;;5069859;28;20063;-69
2022/10/21 06:50:31;;;;;;;13.23;9.10;;;12.10;99.90;;;;;;5071173;28;20330;-69
2022/10/21 06:52:57;;;;;;;10.90;8.23;;;12.20;99.90;;;;;;5072404;28;20077;-69
2022/10/21 06:55:22;;;;;;;18.10;9.30;;;12.20;99.90;;;;;;5068565;28;20033;-69
2022/10/21 06:57:48;;;;;;;11.38;8.18;;;12.20;99.90;;;;;;5071068;28;20154;-69
2022/10/21 07:00:14;;;;;;;12.05;8.60;;;12.20;99.90;;;;;;5071694;28;20048;-69
2022/10/21 07:02:40;;;;;;;11.85;8.80;;;12.20;99.90;;;;;;5073210;28;20433;-70
2022/10/21 07:05:06;;;;;;;12.05;9.20;;;12.20;99.90;;;;;;5065995;28;20029;-69
2022/10/21 07:07:31;;;;;;;12.35;9.25;;;12.30;99.90;;;;;;5051566;28;20086;-70
2022/10/21 07:09:57;;;;;;;12.98;8.57;;;12.30;99.90;;;;;;5062482;28;20028;-70
2022/10/21 07:12:24;;;;;;;14.18;9.38;;;12.30;99.90;;;;;;5071067;28;20021;-69
2022/10/21 07:14:50;;;;;;;13.95;10.10;;;12.30;99.90;;;;;;5071356;28;20396;-70
2022/10/21 07:17:16;;;;;;;14.55;9.63;;;12.40;99.90;;;;;;5076138;28;20036;-69
2022/10/21 07:19:43;;;;;;;13.60;9.75;;;12.40;99.90;;;;;;5074736;28;20029;-69
2022/10/21 07:22:08;;;;;;;13.38;9.10;;;12.50;99.90;;;;;;5071075;28;20427;-69
2022/10/21 07:24:35;;;;;;;12.20;9.77;;;12.60;99.90;;;;;;5071015;28;20028;-69
2022/10/21 07:27:01;;;;;;;12.77;8.95;;;12.50;99.90;;;;;;5071244;28;20507;-69
2022/10/21 07:29:26;;;;;;;12.68;8.27;;;12.60;99.90;;;;;;5079365;28;20126;-69
2022/10/21 07:31:52;;;;;;;11.23;8.43;;;12.60;99.90;;;;;;5073156;28;20044;-70
2022/10/21 07:34:18;;;;;;;12.68;8.73;;;12.70;99.90;;;;;;5058910;28;20141;-67
2022/10/21 07:36:51;;;;;;;14.55;8.63;;;12.70;99.90;;;;;;5069670;28;20100;-67
2022/10/21 07:39:19;;;;;;;14.90;9.07;;;12.70;99.90;;;;;;5071854;28;20088;-68
2022/10/21 07:41:56;;;;;;;11.73;10.00;;;12.70;99.90;;;;;;5075365;28;20086;-68
2022/10/21 07:44:24;;;;;;;13.02;7.70;;;12.80;99.90;;;;;;5073853;28;20059;-68
2022/10/21 07:46:52;;;;;;;11.20;8.50;;;12.80;99.90;;;;;;5084067;28;20032;-68
2022/10/21 07:49:19;;;;;;;11.98;8.95;;;12.80;99.90;;;;;;5074794;28;20028;-68
2022/10/21 07:51:49;;;;;;;9.88;8.45;;;12.90;99.90;;;;;;5075218;28;20030;-68
2022/10/21 07:54:15;;;;;;;12.57;8.55;;;12.90;99.90;;;;;;5074744;28;22006;-68
2022/10/21 07:56:45;;;;;;;13.07;8.50;;;12.90;99.90;;;;;;5075313;28;20025;-69
2022/10/21 07:59:13;;;;;;;13.45;8.57;;;13.00;99.90;;;;;;5073762;28;20384;-69
2022/10/21 08:01:42;;;;;;;11.40;8.70;;;13.10;99.90;;;;;;5075216;28;20032;-68
2022/10/21 08:04:09;;;;;;;11.60;9.13;;;13.10;99.90;;;;;;5073782;28;20118;-66
2022/10/21 08:06:35;;;;;;;12.20;8.63;;;13.20;99.90;;;;;;5075127;28;20032;-68
2022/10/21 08:09:03;;;;;;;12.95;7.90;;;13.20;99.90;;;;;;5074437;28;20055;-68
2022/10/21 08:11:31;;;;;;;11.93;8.73;;;13.20;99.90;;;;;;5055058;28;20388;-68
2022/10/21 08:13:57;;;;;;;12.57;7.75;;;13.20;99.90;;;;;;5077936;28;20220;-69
2022/10/21 08:16:24;;;;;;;13.70;8.23;;;13.30;99.90;;;;;;5069501;28;20036;-68
2022/10/21 08:18:50;;;;;;;11.63;8.98;;;13.30;99.90;;;;;;5074197;28;20031;-68
2022/10/21 08:21:16;;;;;;;16.42;10.23;;;13.30;99.90;;;;;;5073560;28;20044;-69
2022/10/21 08:23:42;;;;;;;12.98;8.43;;;13.30;99.90;;;;;;5074561;28;20151;-69
2022/10/21 08:26:13;;;;;;;12.82;9.48;;;13.30;99.90;;;;;;5057087;28;20064;-69
2022/10/21 08:28:39;;;;;;;11.05;8.48;;;13.30;99.90;;;;;;5071727;28;20113;-69
2022/10/21 08:31:08;;;;;;;11.50;8.73;;;13.40;99.90;;;;;;5072445;28;20060;-69
2022/10/21 08:33:34;;;;;;;11.88;8.38;;;13.50;99.90;;;;;;5072865;28;20060;-68
2022/10/21 08:36:08;;;;;;;15.45;9.02;;;13.50;99.90;;;;;;5072968;28;20488;-68
2022/10/21 08:38:34;;;;;;;12.68;8.57;;;13.60;99.90;;;;;;5072615;28;20032;-69
2022/10/21 08:41:01;;;;;;;12.18;8.25;;;13.70;99.90;;;;;;5071786;28;20037;-68
2022/10/21 08:43:32;;;;;;;10.38;8.48;;;13.70;99.90;;;;;;5072827;28;20028;-69
2022/10/21 08:46:10;;;;;;;12.57;8.45;;;13.80;99.90;;;;;;5071740;28;20104;-69
2022/10/21 08:48:42;;;;;;;11.65;8.70;;;13.90;99.90;;;;;;5072402;28;20033;-68
2022/10/21 08:51:21;;;;;;;11.93;8.70;;;14.00;99.90;;;;;;5072090;28;20036;-68
2022/10/21 08:53:49;;;;;;;11.38;8.70;;;14.00;99.90;;;;;;5072682;28;20028;-69
2022/10/21 08:56:16;;;;;;;9.13;7.85;;;14.20;99.90;;;;;;5070684;28;20044;-68
2022/10/21 08:58:45;;;;;;;12.52;8.55;;;14.20;99.90;;;;;;5072172;28;20028;-69
2022/10/21 09:01:14;;;;;;;11.93;8.65;;;14.40;99.90;;;;;;5071500;28;20036;-68
2022/10/21 09:03:53;;;;;;;10.10;8.15;;;14.50;99.90;;;;;;5072046;28;20032;-68
2022/10/21 09:06:34;;;;;;;11.38;8.63;;;14.60;99.90;;;;;;5071447;28;20502;-69
2022/10/21 09:09:18;;;;;;;10.85;8.40;;;14.70;99.90;;;;;;5072168;28;20035;-69
2022/10/21 09:12:04;;;;;;;12.13;8.65;;;14.80;99.90;;;;;;5072696;28;20028;-71
2022/10/21 09:14:32;;;;;;;12.02;8.20;;;14.90;99.90;;;;;;5072218;28;20056;-68
2022/10/21 09:17:17;;;;;;;11.40;8.30;;;14.90;99.90;;;;;;5067491;28;20033;-70
2022/10/21 09:20:05;;;;;;;11.32;8.38;;;15.00;99.90;;;;;;5057045;28;20036;-72
2022/10/21 09:22:49;;;;;;;13.63;9.38;;;15.00;99.90;;;;;;5064792;28;20036;-71
2022/10/21 09:25:24;;;;;;;9.68;7.85;;;15.10;99.90;;;;;;5072188;28;20059;-71
2022/10/21 09:27:50;;;;;;;;;;;15.10;99.90;;;;;;5072856;28;20043;-71
2022/10/21 09:30:20;;;;;;;11.27;8.23;;;15.20;99.90;;;;;;5072288;28;19912;-70
2022/10/21 09:32:49;;;;;;;13.18;8.02;;;15.20;99.90;;;;;;5059316;28;357583;-70
2022/10/21 09:35:40;;;;;;;12.82;8.93;;;15.10;99.90;;;;;;5071491;28;20037;-69
2022/10/21 09:38:25;;;;;;;11.27;8.50;;;15.20;99.90;;;;;;5072983;28;20090;-70
2022/10/21 09:40:58;;;;;;;12.73;9.30;;;15.20;99.80;;;;;;5067810;28;20032;-70
2022/10/21 09:43:25;;;;;;;9.30;8.02;;;15.20;99.80;;;;;;5072944;28;20060;-71
2022/10/21 09:45:52;;;;;;;11.40;8.80;;;15.20;99.70;;;;;;5065833;28;20115;-71
2022/10/21 09:48:20;;;;;;;10.88;8.68;;;15.20;99.70;;;;;;5072010;28;20028;-69
2022/10/21 09:50:52;;;;;;;9.85;7.88;;;15.20;99.70;;;;;;5075351;28;20052;-70
2022/10/21 09:53:36;;;;;;;14.90;8.75;;;15.30;99.70;;;;;;5080575;28;20084;-71
2022/10/21 09:56:38;;;;;;;11.02;8.77;;;15.40;99.70;;;;;;5052331;28;20035;-70
2022/10/21 09:59:10;;;;;;;11.82;8.55;;;15.40;99.60;;;;;;5053214;28;20029;-70
2022/10/21 10:01:37;;;;;;;9.73;8.02;;;15.40;99.60;;;;;;5057600;28;20044;-70
2022/10/21 10:04:33;;;;;;;16.05;8.07;;;15.50;99.50;;;;;;5068404;28;20029;-70
2022/10/21 10:07:24;;;;;;;13.50;8.65;;;15.50;99.40;;;;;;5064435;28;20046;-69
2022/10/21 10:09:51;;;;;;;9.65;7.72;;;15.60;99.40;;;;;;5072094;28;20028;-69
2022/10/21 10:12:23;;;;;;;11.05;8.75;;;15.70;99.40;;;;;;5059228;28;20029;-69
2022/10/21 10:14:49;;;;;;;10.90;8.65;;;15.80;99.20;;;;;;5060410;28;20028;-70
2022/10/21 10:17:24;;;;;;;9.38;7.85;;;15.90;99.30;;;;;;5059378;28;20028;-70
2022/10/21 10:20:05;;;;;;;11.70;8.93;;;15.90;99.20;;;;;;5049154;28;20100;-69
2022/10/21 10:22:40;;;;;;;12.73;8.95;;;16.10;99.20;;;;;;5051598;28;20123;-71
2022/10/21 10:25:17;;;;;;;10.48;8.38;;;16.10;99.10;;;;;;5069528;28;20055;-69
2022/10/21 10:31:30;;;;;;;11.35;9.13;;;16.20;99.00;;;;;;5071454;28;20090;-71
2022/10/21 10:34:03;;;;;;;12.90;8.30;;;16.20;99.00;;;;;;5061652;28;20538;-71
2022/10/21 10:36:38;;;;;;;10.68;8.75;;;16.30;98.90;;;;;;5072029;28;20372;-70
2022/10/21 10:39:18;;;;;;;10.98;8.68;;;16.30;98.80;;;;;;5067434;28;20376;-70
2022/10/21 10:41:50;;;;;;;10.88;8.55;;;16.20;98.70;;;;;;5071424;28;20075;-70
2022/10/21 10:44:35;;;;;;;10.75;9.05;;;16.30;98.60;;;;;;5068905;28;20480;-70
2022/10/21 10:47:02;;;;;;;10.68;9.15;;;16.20;98.60;;;;;;5057125;28;20385;-70
2022/10/21 10:49:36;;;;;;;10.35;8.75;;;16.30;98.60;;;;;;5055814;28;20021;-71
2022/10/21 10:52:04;;;;;;;10.73;8.82;;;16.30;98.50;;;;;;5052382;28;20424;-70
2022/10/21 10:54:29;;;;;;;10.73;8.50;;;16.30;98.50;;;;;;5057712;28;20012;-70
2022/10/21 10:57:22;;;;;;;11.93;8.70;;;16.40;98.30;;;;;;5070596;28;20356;-70
2022/10/21 10:59:54;;;;;;;14.20;8.90;;;16.40;98.20;;;;;;5067942;28;20151;-71
2022/10/21 11:02:30;;;;;;;12.10;9.15;;;16.40;98.10;;;;;;5071242;28;20040;-71
2022/10/21 11:05:30;;;;;;;11.73;8.60;;;16.40;98.10;;;;;;5070692;28;20047;-69
2022/10/21 11:08:10;;;;;;;10.77;8.55;;;16.40;98.10;;;;;;5071499;28;20386;-69
2022/10/21 11:10:44;;;;;;;12.20;8.63;;;16.40;98.00;;;;;;5068051;28;20024;-70
2022/10/21 11:13:22;;;;;;;13.00;9.48;;;16.50;98.00;;;;;;5062546;28;20494;-69
2022/10/21 11:16:10;;;;;;;12.48;8.95;;;16.50;97.90;;;;;;5060217;28;20472;-70
2022/10/21 11:18:57;;;;;;;11.77;8.65;;;16.50;97.90;;;;;;5070945;28;20112;-69
2022/10/21 11:21:33;;;;;;;11.35;9.10;;;16.60;97.90;;;;;;5069345;28;20495;-70
2022/10/21 11:24:36;;;;;;;12.07;10.05;;;16.70;97.80;;;;;;5069546;28;20037;-71
2022/10/21 11:27:10;;;;;;;11.32;9.07;;;16.70;97.80;;;;;;5069165;28;20472;-71
2022/10/21 11:29:54;;;;;;;11.18;9.35;;;16.70;97.70;;;;;;5068725;28;20080;-73
2022/10/21 11:32:38;;;;;;;9.77;8.15;;;16.80;97.80;;;;;;5069293;28;20533;-72
2022/10/21 11:35:16;;;;;;;11.00;8.77;;;16.70;97.70;;;;;;5071356;28;20062;-72
2022/10/21 11:38:06;;;;;;;10.70;8.80;;;16.80;97.60;;;;;;5069268;28;20051;-72
2022/10/21 11:40:40;;;;;;;9.50;7.72;;;16.80;97.70;;;;;;5071258;28;20040;-72
2022/10/21 11:43:26;;;;;;;11.88;8.68;;;16.90;97.60;;;;;;5068572;28;20045;-73
2022/10/21 11:46:20;;;;;;;11.02;8.07;;;17.00;97.60;;;;;;5070311;28;20108;-73
2022/10/21 11:49:02;;;;;;;9.95;7.90;;;17.10;97.90;;;;;;5045932;28;20431;-74
2022/10/21 11:51:34;;;;;;;13.55;8.57;;;17.10;97.60;;;;;;5058485;28;20021;-73
2022/10/21 11:54:22;;;;;;;10.80;8.23;;;17.20;97.40;;;;;;5068266;28;20048;-73
2022/10/21 11:56:59;;;;;;;11.43;8.35;;;17.20;97.40;;;;;;5071401;28;20181;-73
2022/10/21 11:59:48;;;;;;;10.95;8.38;;;17.30;97.40;;;;;;5069973;28;20029;-75
2022/10/21 12:02:22;;;;;;;13.27;7.88;;;17.30;97.30;;;;;;5070376;28;20064;-73
2022/10/21 12:05:10;;;;;;;9.27;8.00;;;17.30;97.40;;;;;;5070721;28;20104;-72
2022/10/21 12:07:48;;;;;;;10.95;7.45;;;17.30;97.30;;;;;;5069597;28;20048;-72
2022/10/21 12:10:44;;;;;;;11.70;8.25;;;17.40;97.40;;;;;;5069555;28;20035;-67
2022/10/21 12:13:13;;;;;;;15.85;8.38;;;17.50;97.40;;;;;;5071850;28;20054;-68
2022/10/21 12:15:55;;;;;;;11.60;8.45;;;17.50;97.30;;;;;;5070656;28;20055;-67
2022/10/21 12:18:23;;;;;;;12.98;8.13;;;17.50;97.30;;;;;;5065707;28;20510;-67
2022/10/21 12:20:52;;;;;;;11.52;8.55;;;17.60;97.30;;;;;;5070400;28;20116;-68
2022/10/21 12:23:23;;;;;;;14.55;8.45;;;17.60;97.20;;;;;;5066003;28;20127;-67
2022/10/21 12:26:01;;;;;;;10.10;8.25;;;17.60;97.30;;;;;;5063972;28;20028;-67
2022/10/21 12:28:42;;;;;;;10.50;7.78;;;17.60;97.30;;;;;;5059739;28;20430;-67
2022/10/21 12:31:24;;;;;;;10.38;8.07;;;17.60;97.30;;;;;;5072771;28;20127;-67
2022/10/21 12:33:51;;;;;;;11.02;7.95;;;17.70;97.30;;;;;;5074199;28;20044;-67
2022/10/21 12:36:23;;;;;;;12.00;8.55;;;17.60;97.30;;;;;;5073357;28;20024;-67
2022/10/21 12:38:54;;;;;;;12.93;8.93;;;17.60;97.20;;;;;;5071847;28;20035;-69
2022/10/21 12:41:23;;;;;;;10.52;8.25;;;17.70;97.10;;;;;;5064914;28;20040;-69
2022/10/21 12:44:20;;;;;;;11.43;8.20;;;17.60;97.10;;;;;;5072209;28;20028;-67
2022/10/21 12:46:50;;;;;;;10.05;7.90;;;17.60;97.10;;;;;;5068710;28;20074;-66
2022/10/21 12:49:22;;;;;;;12.23;8.90;;;17.70;97.10;;;;;;5071941;28;20028;-68
2022/10/21 12:52:14;;;;;;;12.13;7.53;;;17.60;97.20;;;;;;5073358;28;20036;-66
2022/10/21 12:54:52;;;;;;;9.15;7.07;;;17.60;97.10;;;;;;5068935;28;20483;-69
2022/10/21 12:57:27;;;;;;;9.43;6.95;;;17.60;97.00;;;;;;5078251;28;20020;-69
2022/10/21 13:00:14;;;;;;;8.98;6.78;;;17.60;97.00;;;;;;5075718;28;20112;-68
2022/10/21 13:03:02;;;;;;;9.38;6.90;;;17.60;97.00;;;;;;5074972;28;20071;-66
2022/10/21 13:05:37;;;;;;;9.77;7.43;;;17.50;96.90;;;;;;5072979;28;20036;-66